sensor_id;sensor_type;location;lat;lon;timestamp;temperature;humidity
28524;DHT22;15734;50.904;6.922;2024-01-06T00:00:34;7.40;99.90
28524;DHT22;15734;50.904;6.922;2024-01-06T00:03:00;7.40;99.90
28524;DHT22;15734;50.904;6.922;2024-01-06T00:05:25;7.40;99.90
28524;DHT22;15734;50.904;6.922;2024-01-06T00:07:51;7.40;99.90
28524;DHT22;15734;50.904;6.922;2024-01-06T00:10:17;7.50;99.90
28524;DHT22;15734;50.904;6.922;2024-01-06T00:12:42;7.50;99.90
28524;DHT22;15734;50.904;6.922;2024-01-06T00:15:08;7.50;99.90
28524;DHT22;15734;50.904;6.922;2024-01-06T00:17:34;7.50;99.90
28524;DHT22;15734;50.904;6.922;2024-01-06T00:19:59;7.50;99.90
28524;DHT22;15734;50.904;6.922;2024-01-06T00:22:27;7.50;99.90
28524;DHT22;15734;50.904;6.922;2024-01-06T00:24:52;7.50;99.90
28524;DHT22;15734;50.904;6.922;2024-01-06T00:27:18;7.50;99.90
28524;DHT22;15734;50.904;6.922;2024-01-06T00:29:43;7.50;99.90
28524;DHT22;15734;50.904;6.922;2024-01-06T00:32:09;7.50;99.90
28524;DHT22;15734;50.904;6.922;2024-01-06T00:34:34;7.40;99.90
28524;DHT22;15734;50.904;6.922;2024-01-06T00:37:00;7.50;99.90
28524;DHT22;15734;50.904;6.922;2024-01-06T00:39:25;7.50;99.90
28524;DHT22;15734;50.904;6.922;2024-01-06T00:41:51;7.40;99.90
28524;DHT22;15734;50.904;6.922;2024-01-06T00:44:16;7.40;99.90
28524;DHT22;15734;50.904;6.922;2024-01-06T00:46:42;7.30;99.90
28524;DHT22;15734;50.904;6.922;2024-01-06T00:49:07;7.20;99.90
28524;DHT22;15734;50.904;6.922;2024-01-06T00:51:33;7.20;99.90
28524;DHT22;15734;50.904;6.922;2024-01-06T00:53:58;7.20;99.90
28524;DHT22;15734;50.904;6.922;2024-01-06T00:56:24;7.10;99.90
28524;DHT22;15734;50.904;6.922;2024-01-06T00:58:49;7.10;99.90
28524;DHT22;15734;50.904;6.922;2024-01-06T01:01:15;7.10;99.90
28524;DHT22;15734;50.904;6.922;2024-01-06T01:03:40;7.10;99.90
28524;DHT22;15734;50.904;6.922;2024-01-06T01:06:06;7.10;99.90
28524;DHT22;15734;50.904;6.922;2024-01-06T01:08:31;7.10;99.90
28524;DHT22;15734;50.904;6.922;2024-01-06T01:10:57;7.10;99.90
28524;DHT22;15734;50.904;6.922;2024-01-06T01:13:23;7.10;99.90
28524;DHT22;15734;50.904;6.922;2024-01-06T01:15:49;7.10;99.90
28524;DHT22;15734;50.904;6.922;2024-01-06T01:18:14;7.10;99.90
28524;DHT22;15734;50.904;6.922;2024-01-06T01:20:40;7.10;99.90
28524;DHT22;15734;50.904;6.922;2024-01-06T01:23:09;7.10;99.90
28524;DHT22;15734;50.904;6.922;2024-01-06T01:25:34;7.20;99.90
28524;DHT22;15734;50.904;6.922;2024-01-06T01:28:00;7.20;99.90
28524;DHT22;15734;50.904;6.922;2024-01-06T01:30:25;7.20;99.90
28524;DHT22;15734;50.904;6.922;2024-01-06T01:32:51;7.20;99.90
28524;DHT22;15734;50.904;6.922;2024-01-06T01:35:16;7.10;99.90
28524;DHT22;15734;50.904;6.922;2024-01-06T01:37:42;7.20;99.90
28524;DHT22;15734;50.904;6.922;2024-01-06T01:40:08;7.20;99.90
28524;DHT22;15734;50.904;6.922;2024-01-06T01:42:34;7.20;99.90
28524;DHT22;15734;50.904;6.922;2024-01-06T01:45:00;7.20;99.90
28524;DHT22;15734;50.904;6.922;2024-01-06T01:47:26;7.20;99.90
28524;DHT22;15734;50.904;6.922;2024-01-06T01:49:54;7.10;99.90
28524;DHT22;15734;50.904;6.922;2024-01-06T01:52:20;7.10;99.90
28524;DHT22;15734;50.904;6.922;2024-01-06T01:54:45;7.10;99.90
28524;DHT22;15734;50.904;6.922;2024-01-06T01:57:12;7.10;99.90
28524;DHT22;15734;50.904;6.922;2024-01-06T01:59:39;7.20;99.90
28524;DHT22;15734;50.904;6.922;2024-01-06T02:02:05;7.10;99.90
28524;DHT22;15734;50.904;6.922;2024-01-06T02:04:31;7.10;99.90
28524;DHT22;15734;50.904;6.922;2024-01-06T02:06:57;7.10;99.90
28524;DHT22;15734;50.904;6.922;2024-01-06T02:09:22;7.00;99.90
28524;DHT22;15734;50.904;6.922;2024-01-06T02:11:52;7.10;99.90
28524;DHT22;15734;50.904;6.922;2024-01-06T02:14:18;7.00;99.90
28524;DHT22;15734;50.904;6.922;2024-01-06T02:16:43;7.00;99.90
28524;DHT22;15734;50.904;6.922;2024-01-06T02:19:11;7.00;99.90
28524;DHT22;15734;50.904;6.922;2024-01-06T02:21:42;7.00;99.90
28524;DHT22;15734;50.904;6.922;2024-01-06T02:24:09;7.00;99.90
28524;DHT22;15734;50.904;6.922;2024-01-06T02:26:34;7.00;99.90
28524;DHT22;15734;50.904;6.922;2024-01-06T02:29:00;7.00;99.90
28524;DHT22;15734;50.904;6.922;2024-01-06T02:31:27;7.00;99.90
28524;DHT22;15734;50.904;6.922;2024-01-06T02:33:52;7.10;99.90
28524;DHT22;15734;50.904;6.922;2024-01-06T02:36:18;7.00;99.90
28524;DHT22;15734;50.904;6.922;2024-01-06T02:38:43;7.10;99.90
28524;DHT22;15734;50.904;6.922;2024-01-06T02:41:09;7.10;99.90
28524;DHT22;15734;50.904;6.922;2024-01-06T02:43:34;7.10;99.90
28524;DHT22;15734;50.904;6.922;2024-01-06T02:46:00;7.10;99.90
28524;DHT22;15734;50.904;6.922;2024-01-06T02:48:26;7.10;99.90
28524;DHT22;15734;50.904;6.922;2024-01-06T02:50:51;7.10;99.90
28524;DHT22;15734;50.904;6.922;2024-01-06T02:53:17;7.10;99.90
28524;DHT22;15734;50.904;6.922;2024-01-06T02:55:42;7.10;99.90
28524;DHT22;15734;50.904;6.922;2024-01-06T02:58:08;7.10;99.90
28524;DHT22;15734;50.904;6.922;2024-01-06T03:00:33;7.00;99.90
28524;DHT22;15734;50.904;6.922;2024-01-06T03:02:59;7.00;99.90
28524;DHT22;15734;50.904;6.922;2024-01-06T03:05:24;7.00;99.90
28524;DHT22;15734;50.904;6.922;2024-01-06T03:07:50;7.00;99.90
28524;DHT22;15734;50.904;6.922;2024-01-06T03:10:16;7.00;99.90
28524;DHT22;15734;50.904;6.922;2024-01-06T03:12:41;7.00;99.90
28524;DHT22;15734;50.904;6.922;2024-01-06T03:15:07;7.00;99.90
28524;DHT22;15734;50.904;6.922;2024-01-06T03:17:32;7.10;99.90
28524;DHT22;15734;50.904;6.922;2024-01-06T03:19:58;7.10;99.90
28524;DHT22;15734;50.904;6.922;2024-01-06T03:22:23;7.10;99.90
28524;DHT22;15734;50.904;6.922;2024-01-06T03:24:49;7.10;99.90
28524;DHT22;15734;50.904;6.922;2024-01-06T03:27:14;7.10;99.90
28524;DHT22;15734;50.904;6.922;2024-01-06T03:29:40;7.10;99.90
28524;DHT22;15734;50.904;6.922;2024-01-06T03:32:06;7.10;99.90
28524;DHT22;15734;50.904;6.922;2024-01-06T03:34:31;7.20;99.90
28524;DHT22;15734;50.904;6.922;2024-01-06T03:36:57;7.10;99.90
28524;DHT22;15734;50.904;6.922;2024-01-06T03:39:22;7.10;99.90
28524;DHT22;15734;50.904;6.922;2024-01-06T03:41:49;7.10;99.90
28524;DHT22;15734;50.904;6.922;2024-01-06T03:44:14;7.10;99.90
28524;DHT22;15734;50.904;6.922;2024-01-06T03:46:40;7.10;99.90
28524;DHT22;15734;50.904;6.922;2024-01-06T03:49:05;7.10;99.90
28524;DHT22;15734;50.904;6.922;2024-01-06T03:51:31;7.10;99.90
28524;DHT22;15734;50.904;6.922;2024-01-06T03:53:56;7.20;99.90
28524;DHT22;15734;50.904;6.922;2024-01-06T03:56:22;7.20;99.90
28524;DHT22;15734;50.904;6.922;2024-01-06T03:58:47;7.20;99.90
28524;DHT22;15734;50.904;6.922;2024-01-06T04:01:13;7.20;99.90
28524;DHT22;15734;50.904;6.922;2024-01-06T04:03:39;7.20;99.90
28524;DHT22;15734;50.904;6.922;2024-01-06T04:06:08;7.20;99.90
28524;DHT22;15734;50.904;6.922;2024-01-06T04:08:36;7.20;99.90
28524;DHT22;15734;50.904;6.922;2024-01-06T04:11:01;7.20;99.90
28524;DHT22;15734;50.904;6.922;2024-01-06T04:13:27;7.20;99.90
28524;DHT22;15734;50.904;6.922;2024-01-06T04:15:53;7.20;99.90
28524;DHT22;15734;50.904;6.922;2024-01-06T04:18:19;7.10;99.90
28524;DHT22;15734;50.904;6.922;2024-01-06T04:20:44;7.10;99.90
28524;DHT22;15734;50.904;6.922;2024-01-06T04:23:10;7.20;99.90
28524;DHT22;15734;50.904;6.922;2024-01-06T04:25:35;7.20;99.90
28524;DHT22;15734;50.904;6.922;2024-01-06T04:28:01;7.30;99.90
28524;DHT22;15734;50.904;6.922;2024-01-06T04:30:26;7.30;99.90
28524;DHT22;15734;50.904;6.922;2024-01-06T04:32:52;7.30;99.90
28524;DHT22;15734;50.904;6.922;2024-01-06T04:35:19;7.20;99.90
28524;DHT22;15734;50.904;6.922;2024-01-06T04:37:45;7.30;99.90
28524;DHT22;15734;50.904;6.922;2024-01-06T04:40:11;7.20;99.90
28524;DHT22;15734;50.904;6.922;2024-01-06T04:42:36;7.30;99.90
28524;DHT22;15734;50.904;6.922;2024-01-06T04:45:02;7.30;99.90
28524;DHT22;15734;50.904;6.922;2024-01-06T04:47:28;7.30;99.90
28524;DHT22;15734;50.904;6.922;2024-01-06T04:49:55;7.30;99.90
28524;DHT22;15734;50.904;6.922;2024-01-06T04:52:21;7.30;99.90
28524;DHT22;15734;50.904;6.922;2024-01-06T04:54:47;7.30;99.90
28524;DHT22;15734;50.904;6.922;2024-01-06T04:57:12;7.30;99.90
28524;DHT22;15734;50.904;6.922;2024-01-06T04:59:38;7.30;99.90
28524;DHT22;15734;50.904;6.922;2024-01-06T05:02:04;7.30;99.90
28524;DHT22;15734;50.904;6.922;2024-01-06T05:04:29;7.30;99.90
28524;DHT22;15734;50.904;6.922;2024-01-06T05:06:57;7.30;99.90
28524;DHT22;15734;50.904;6.922;2024-01-06T05:09:23;7.30;99.90
28524;DHT22;15734;50.904;6.922;2024-01-06T05:11:48;7.30;99.90
28524;DHT22;15734;50.904;6.922;2024-01-06T05:14:14;7.30;99.90
28524;DHT22;15734;50.904;6.922;2024-01-06T05:16:40;7.30;99.90
28524;DHT22;15734;50.904;6.922;2024-01-06T05:19:05;7.30;99.90
28524;DHT22;15734;50.904;6.922;2024-01-06T05:21:31;7.30;99.90
28524;DHT22;15734;50.904;6.922;2024-01-06T05:23:56;7.40;99.90
28524;DHT22;15734;50.904;6.922;2024-01-06T05:26:22;7.40;99.90
28524;DHT22;15734;50.904;6.922;2024-01-06T05:28:48;7.40;99.90
28524;DHT22;15734;50.904;6.922;2024-01-06T05:31:13;7.40;99.90
28524;DHT22;15734;50.904;6.922;2024-01-06T05:33:39;7.30;99.90
28524;DHT22;15734;50.904;6.922;2024-01-06T05:36:04;7.20;99.90
28524;DHT22;15734;50.904;6.922;2024-01-06T05:38:30;7.10;99.90
28524;DHT22;15734;50.904;6.922;2024-01-06T05:40:56;6.90;99.90
28524;DHT22;15734;50.904;6.922;2024-01-06T05:43:21;6.70;99.90
28524;DHT22;15734;50.904;6.922;2024-01-06T05:45:47;6.60;99.90
28524;DHT22;15734;50.904;6.922;2024-01-06T05:48:12;6.50;99.90
28524;DHT22;15734;50.904;6.922;2024-01-06T05:50:39;6.40;99.90
28524;DHT22;15734;50.904;6.922;2024-01-06T05:53:05;6.40;99.90
28524;DHT22;15734;50.904;6.922;2024-01-06T05:55:31;6.40;99.90
28524;DHT22;15734;50.904;6.922;2024-01-06T05:57:56;6.30;99.90
28524;DHT22;15734;50.904;6.922;2024-01-06T06:00:22;6.30;99.90
28524;DHT22;15734;50.904;6.922;2024-01-06T06:02:47;6.30;99.90
28524;DHT22;15734;50.904;6.922;2024-01-06T06:05:13;6.20;99.90
28524;DHT22;15734;50.904;6.922;2024-01-06T06:07:39;6.20;99.90
28524;DHT22;15734;50.904;6.922;2024-01-06T06:10:07;6.20;99.90
28524;DHT22;15734;50.904;6.922;2024-01-06T06:12:32;6.20;99.90
28524;DHT22;15734;50.904;6.922;2024-01-06T06:14:58;6.20;99.90
28524;DHT22;15734;50.904;6.922;2024-01-06T06:17:23;6.20;99.90
28524;DHT22;15734;50.904;6.922;2024-01-06T06:19:49;6.10;99.90
28524;DHT22;15734;50.904;6.922;2024-01-06T06:22:14;6.00;99.90
28524;DHT22;15734;50.904;6.922;2024-01-06T06:24:40;6.00;99.90
28524;DHT22;15734;50.904;6.922;2024-01-06T06:27:05;5.90;99.90
28524;DHT22;15734;50.904;6.922;2024-01-06T06:29:31;5.90;99.90
28524;DHT22;15734;50.904;6.922;2024-01-06T06:31:56;5.90;99.90
28524;DHT22;15734;50.904;6.922;2024-01-06T06:34:22;5.80;99.90
28524;DHT22;15734;50.904;6.922;2024-01-06T06:36:48;5.80;99.90
28524;DHT22;15734;50.904;6.922;2024-01-06T06:39:13;5.80;99.90
28524;DHT22;15734;50.904;6.922;2024-01-06T06:41:39;5.80;99.90
28524;DHT22;15734;50.904;6.922;2024-01-06T06:44:04;5.80;99.90
28524;DHT22;15734;50.904;6.922;2024-01-06T06:46:30;5.80;99.90
28524;DHT22;15734;50.904;6.922;2024-01-06T06:48:56;5.80;99.90
28524;DHT22;15734;50.904;6.922;2024-01-06T06:51:21;5.80;99.90
28524;DHT22;15734;50.904;6.922;2024-01-06T06:53:50;5.80;99.90
28524;DHT22;15734;50.904;6.922;2024-01-06T06:56:15;5.80;99.90
28524;DHT22;15734;50.904;6.922;2024-01-06T06:58:42;5.80;99.90
28524;DHT22;15734;50.904;6.922;2024-01-06T07:01:08;5.80;99.90
28524;DHT22;15734;50.904;6.922;2024-01-06T07:03:33;5.80;99.90
28524;DHT22;15734;50.904;6.922;2024-01-06T07:05:59;5.80;99.90
28524;DHT22;15734;50.904;6.922;2024-01-06T07:08:24;5.80;99.90
28524;DHT22;15734;50.904;6.922;2024-01-06T07:10:50;5.80;99.90
28524;DHT22;15734;50.904;6.922;2024-01-06T07:13:15;5.80;99.90
28524;DHT22;15734;50.904;6.922;2024-01-06T07:15:41;5.80;99.90
28524;DHT22;15734;50.904;6.922;2024-01-06T07:18:07;5.90;99.90
28524;DHT22;15734;50.904;6.922;2024-01-06T07:20:32;5.80;99.90
28524;DHT22;15734;50.904;6.922;2024-01-06T07:22:58;5.80;99.90
28524;DHT22;15734;50.904;6.922;2024-01-06T07:25:23;5.90;99.90
28524;DHT22;15734;50.904;6.922;2024-01-06T07:27:49;5.80;99.90
28524;DHT22;15734;50.904;6.922;2024-01-06T07:30:14;5.80;99.90
28524;DHT22;15734;50.904;6.922;2024-01-06T07:32:40;5.80;99.90
28524;DHT22;15734;50.904;6.922;2024-01-06T07:35:05;5.80;99.90
28524;DHT22;15734;50.904;6.922;2024-01-06T07:37:32;5.80;99.90
28524;DHT22;15734;50.904;6.922;2024-01-06T07:39:57;5.80;99.90
28524;DHT22;15734;50.904;6.922;2024-01-06T07:42:23;5.80;99.90
28524;DHT22;15734;50.904;6.922;2024-01-06T07:44:48;5.70;99.90
28524;DHT22;15734;50.904;6.922;2024-01-06T07:47:14;5.70;99.90
28524;DHT22;15734;50.904;6.922;2024-01-06T07:49:40;5.70;99.90
28524;DHT22;15734;50.904;6.922;2024-01-06T07:52:05;5.70;99.90
28524;DHT22;15734;50.904;6.922;2024-01-06T07:54:31;5.70;99.90
28524;DHT22;15734;50.904;6.922;2024-01-06T07:56:56;5.60;99.90
28524;DHT22;15734;50.904;6.922;2024-01-06T07:59:22;5.70;99.90
28524;DHT22;15734;50.904;6.922;2024-01-06T08:01:47;5.60;99.90
28524;DHT22;15734;50.904;6.922;2024-01-06T08:04:13;5.70;99.90
28524;DHT22;15734;50.904;6.922;2024-01-06T08:06:38;5.70;99.90
28524;DHT22;15734;50.904;6.922;2024-01-06T08:09:04;5.70;99.90
28524;DHT22;15734;50.904;6.922;2024-01-06T08:11:29;5.70;99.90
28524;DHT22;15734;50.904;6.922;2024-01-06T08:13:55;5.70;99.90
28524;DHT22;15734;50.904;6.922;2024-01-06T08:16:21;5.80;99.90
28524;DHT22;15734;50.904;6.922;2024-01-06T08:18:47;5.70;99.90
28524;DHT22;15734;50.904;6.922;2024-01-06T08:21:12;5.70;99.90
28524;DHT22;15734;50.904;6.922;2024-01-06T08:23:38;5.70;99.90
28524;DHT22;15734;50.904;6.922;2024-01-06T08:26:04;5.80;99.90
28524;DHT22;15734;50.904;6.922;2024-01-06T08:28:30;5.70;99.90
28524;DHT22;15734;50.904;6.922;2024-01-06T08:30:56;5.80;99.90
28524;DHT22;15734;50.904;6.922;2024-01-06T08:33:21;5.70;99.90
28524;DHT22;15734;50.904;6.922;2024-01-06T08:35:47;5.70;99.90
28524;DHT22;15734;50.904;6.922;2024-01-06T08:38:14;5.70;99.90
28524;DHT22;15734;50.904;6.922;2024-01-06T08:40:39;5.80;99.90
28524;DHT22;15734;50.904;6.922;2024-01-06T08:43:05;5.80;99.90
28524;DHT22;15734;50.904;6.922;2024-01-06T08:45:31;5.80;99.90
28524;DHT22;15734;50.904;6.922;2024-01-06T08:47:57;5.80;99.90
28524;DHT22;15734;50.904;6.922;2024-01-06T08:50:22;5.80;99.90
28524;DHT22;15734;50.904;6.922;2024-01-06T08:52:48;5.80;99.90
28524;DHT22;15734;50.904;6.922;2024-01-06T08:55:13;5.80;99.90
28524;DHT22;15734;50.904;6.922;2024-01-06T08:57:39;5.80;99.90
28524;DHT22;15734;50.904;6.922;2024-01-06T09:00:05;5.70;99.90
28524;DHT22;15734;50.904;6.922;2024-01-06T09:02:31;5.70;99.90
28524;DHT22;15734;50.904;6.922;2024-01-06T09:04:56;5.80;99.90
28524;DHT22;15734;50.904;6.922;2024-01-06T09:07:22;5.80;99.90
28524;DHT22;15734;50.904;6.922;2024-01-06T09:09:47;5.80;99.90
28524;DHT22;15734;50.904;6.922;2024-01-06T09:12:13;5.80;99.90
28524;DHT22;15734;50.904;6.922;2024-01-06T09:14:38;5.80;99.90
28524;DHT22;15734;50.904;6.922;2024-01-06T09:17:04;5.90;99.90
28524;DHT22;15734;50.904;6.922;2024-01-06T09:19:30;5.90;99.90
28524;DHT22;15734;50.904;6.922;2024-01-06T09:21:56;6.00;99.90
28524;DHT22;15734;50.904;6.922;2024-01-06T09:24:21;5.90;99.90
28524;DHT22;15734;50.904;6.922;2024-01-06T09:26:47;5.90;99.90
28524;DHT22;15734;50.904;6.922;2024-01-06T09:29:15;5.90;99.90
28524;DHT22;15734;50.904;6.922;2024-01-06T09:31:41;5.90;99.90
28524;DHT22;15734;50.904;6.922;2024-01-06T09:34:09;5.90;99.90
28524;DHT22;15734;50.904;6.922;2024-01-06T09:36:35;5.90;99.90
28524;DHT22;15734;50.904;6.922;2024-01-06T09:39:01;5.80;99.90
28524;DHT22;15734;50.904;6.922;2024-01-06T09:41:26;5.90;99.90
28524;DHT22;15734;50.904;6.922;2024-01-06T09:43:52;5.80;99.90
28524;DHT22;15734;50.904;6.922;2024-01-06T09:46:25;5.90;99.90
28524;DHT22;15734;50.904;6.922;2024-01-06T09:48:57;5.90;99.90
28524;DHT22;15734;50.904;6.922;2024-01-06T09:51:24;5.90;99.90
28524;DHT22;15734;50.904;6.922;2024-01-06T09:53:59;5.80;99.90
28524;DHT22;15734;50.904;6.922;2024-01-06T09:56:29;5.80;99.90
28524;DHT22;15734;50.904;6.922;2024-01-06T09:58:55;5.80;99.90
28524;DHT22;15734;50.904;6.922;2024-01-06T10:01:21;5.70;99.90
28524;DHT22;15734;50.904;6.922;2024-01-06T10:03:47;5.70;99.90
28524;DHT22;15734;50.904;6.922;2024-01-06T10:06:14;5.60;99.90
28524;DHT22;15734;50.904;6.922;2024-01-06T10:08:43;5.70;99.90
28524;DHT22;15734;50.904;6.922;2024-01-06T10:11:08;5.70;99.90
28524;DHT22;15734;50.904;6.922;2024-01-06T10:13:35;5.70;99.90
28524;DHT22;15734;50.904;6.922;2024-01-06T10:16:00;5.70;99.90
28524;DHT22;15734;50.904;6.922;2024-01-06T10:18:27;5.80;99.90
28524;DHT22;15734;50.904;6.922;2024-01-06T10:20:55;5.80;99.90
28524;DHT22;15734;50.904;6.922;2024-01-06T10:23:22;5.70;99.90
28524;DHT22;15734;50.904;6.922;2024-01-06T10:25:52;5.70;99.90
28524;DHT22;15734;50.904;6.922;2024-01-06T10:28:17;5.70;99.90
28524;DHT22;15734;50.904;6.922;2024-01-06T10:30:43;5.70;99.90
28524;DHT22;15734;50.904;6.922;2024-01-06T10:33:09;5.70;99.90
28524;DHT22;15734;50.904;6.922;2024-01-06T10:35:36;5.70;99.90
28524;DHT22;15734;50.904;6.922;2024-01-06T10:38:02;5.70;99.90
28524;DHT22;15734;50.904;6.922;2024-01-06T10:40:28;5.70;99.90
28524;DHT22;15734;50.904;6.922;2024-01-06T10:42:55;5.70;99.90
28524;DHT22;15734;50.904;6.922;2024-01-06T10:45:23;5.70;99.90
28524;DHT22;15734;50.904;6.922;2024-01-06T10:47:49;5.80;99.90
28524;DHT22;15734;50.904;6.922;2024-01-06T10:50:17;5.70;99.90
28524;DHT22;15734;50.904;6.922;2024-01-06T10:52:43;5.70;99.90
28524;DHT22;15734;50.904;6.922;2024-01-06T10:55:09;5.70;99.90
28524;DHT22;15734;50.904;6.922;2024-01-06T10:57:37;5.70;99.90
28524;DHT22;15734;50.904;6.922;2024-01-06T11:00:03;5.60;99.90
28524;DHT22;15734;50.904;6.922;2024-01-06T11:02:31;5.70;99.90
28524;DHT22;15734;50.904;6.922;2024-01-06T11:04:57;5.70;99.90
28524;DHT22;15734;50.904;6.922;2024-01-06T11:07:24;5.60;99.90
28524;DHT22;15734;50.904;6.922;2024-01-06T11:10:06;5.60;99.90
28524;DHT22;15734;50.904;6.922;2024-01-06T11:12:34;5.60;99.90
28524;DHT22;15734;50.904;6.922;2024-01-06T11:15:00;5.70;99.90
28524;DHT22;15734;50.904;6.922;2024-01-06T11:17:57;5.60;99.90
28524;DHT22;15734;50.904;6.922;2024-01-06T11:20:26;5.60;99.90
28524;DHT22;15734;50.904;6.922;2024-01-06T11:22:52;5.70;99.90
28524;DHT22;15734;50.904;6.922;2024-01-06T11:25:20;5.70;99.90
28524;DHT22;15734;50.904;6.922;2024-01-06T11:27:47;5.70;99.90
28524;DHT22;15734;50.904;6.922;2024-01-06T11:30:24;5.70;99.90
28524;DHT22;15734;50.904;6.922;2024-01-06T11:32:51;5.70;99.90
28524;DHT22;15734;50.904;6.922;2024-01-06T11:35:19;5.70;99.90
28524;DHT22;15734;50.904;6.922;2024-01-06T11:43:09;5.70;99.90
28524;DHT22;15734;50.904;6.922;2024-01-06T11:45:39;5.70;99.90
28524;DHT22;15734;50.904;6.922;2024-01-06T11:48:10;5.60;99.90
28524;DHT22;15734;50.904;6.922;2024-01-06T11:50:38;5.60;99.90
28524;DHT22;15734;50.904;6.922;2024-01-06T11:53:05;5.60;99.90
28524;DHT22;15734;50.904;6.922;2024-01-06T11:55:31;5.70;99.90
28524;DHT22;15734;50.904;6.922;2024-01-06T11:57:58;5.70;99.90
28524;DHT22;15734;50.904;6.922;2024-01-06T12:00:27;5.70;99.90
28524;DHT22;15734;50.904;6.922;2024-01-06T12:03:00;5.80;99.90
28524;DHT22;15734;50.904;6.922;2024-01-06T12:05:26;5.70;99.90
28524;DHT22;15734;50.904;6.922;2024-01-06T12:07:59;5.70;99.90
28524;DHT22;15734;50.904;6.922;2024-01-06T12:10:27;5.70;99.90
28524;DHT22;15734;50.904;6.922;2024-01-06T12:13:05;5.60;99.90
28524;DHT22;15734;50.904;6.922;2024-01-06T12:15:32;5.70;99.90
28524;DHT22;15734;50.904;6.922;2024-01-06T12:17:58;5.60;99.90
28524;DHT22;15734;50.904;6.922;2024-01-06T12:20:25;5.60;99.90
28524;DHT22;15734;50.904;6.922;2024-01-06T12:22:54;5.60;99.90
28524;DHT22;15734;50.904;6.922;2024-01-06T12:25:24;5.60;99.90
28524;DHT22;15734;50.904;6.922;2024-01-06T12:27:51;5.60;99.90
28524;DHT22;15734;50.904;6.922;2024-01-06T12:30:19;5.60;99.90
28524;DHT22;15734;50.904;6.922;2024-01-06T12:32:46;5.60;99.90
28524;DHT22;15734;50.904;6.922;2024-01-06T12:35:15;5.50;99.90
28524;DHT22;15734;50.904;6.922;2024-01-06T12:37:44;5.40;99.90
28524;DHT22;15734;50.904;6.922;2024-01-06T12:40:14;5.30;99.90
28524;DHT22;15734;50.904;6.922;2024-01-06T12:42:42;5.20;99.90
28524;DHT22;15734;50.904;6.922;2024-01-06T12:45:08;5.10;99.90
28524;DHT22;15734;50.904;6.922;2024-01-06T12:47:35;5.10;99.90
28524;DHT22;15734;50.904;6.922;2024-01-06T12:50:01;5.10;99.90
28524;DHT22;15734;50.904;6.922;2024-01-06T12:52:27;5.10;99.90
28524;DHT22;15734;50.904;6.922;2024-01-06T12:54:52;5.00;99.90
28524;DHT22;15734;50.904;6.922;2024-01-06T12:57:18;5.10;99.90
28524;DHT22;15734;50.904;6.922;2024-01-06T12:59:43;5.00;99.90
28524;DHT22;15734;50.904;6.922;2024-01-06T13:02:09;4.90;99.90
28524;DHT22;15734;50.904;6.922;2024-01-06T13:04:35;4.90;99.90
28524;DHT22;15734;50.904;6.922;2024-01-06T13:07:00;4.80;99.90
28524;DHT22;15734;50.904;6.922;2024-01-06T13:09:27;4.80;99.90
28524;DHT22;15734;50.904;6.922;2024-01-06T13:11:53;4.80;99.90
28524;DHT22;15734;50.904;6.922;2024-01-06T13:14:21;4.70;99.90
28524;DHT22;15734;50.904;6.922;2024-01-06T13:16:46;4.70;99.90
28524;DHT22;15734;50.904;6.922;2024-01-06T13:19:12;4.70;99.90
28524;DHT22;15734;50.904;6.922;2024-01-06T13:21:37;4.70;99.90
28524;DHT22;15734;50.904;6.922;2024-01-06T13:24:07;4.80;99.90
28524;DHT22;15734;50.904;6.922;2024-01-06T13:26:33;4.80;99.90
28524;DHT22;15734;50.904;6.922;2024-01-06T13:28:59;4.80;99.90
28524;DHT22;15734;50.904;6.922;2024-01-06T13:31:25;4.60;99.90
28524;DHT22;15734;50.904;6.922;2024-01-06T13:33:50;4.60;99.90
28524;DHT22;15734;50.904;6.922;2024-01-06T13:36:22;4.70;99.90
28524;DHT22;15734;50.904;6.922;2024-01-06T13:38:47;4.60;99.90
28524;DHT22;15734;50.904;6.922;2024-01-06T13:41:14;4.60;99.90
28524;DHT22;15734;50.904;6.922;2024-01-06T13:43:39;4.70;99.90
28524;DHT22;15734;50.904;6.922;2024-01-06T13:46:05;4.60;99.90
28524;DHT22;15734;50.904;6.922;2024-01-06T13:48:30;4.70;99.90
28524;DHT22;15734;50.904;6.922;2024-01-06T13:50:56;4.60;99.90
28524;DHT22;15734;50.904;6.922;2024-01-06T13:53:22;4.60;99.90
28524;DHT22;15734;50.904;6.922;2024-01-06T13:55:48;4.60;99.90
28524;DHT22;15734;50.904;6.922;2024-01-06T13:58:13;4.50;99.90
28524;DHT22;15734;50.904;6.922;2024-01-06T14:00:39;4.50;99.90
28524;DHT22;15734;50.904;6.922;2024-01-06T14:03:05;4.50;99.90
28524;DHT22;15734;50.904;6.922;2024-01-06T14:05:32;4.40;99.90
28524;DHT22;15734;50.904;6.922;2024-01-06T14:07:58;4.40;99.90
28524;DHT22;15734;50.904;6.922;2024-01-06T14:10:23;4.40;99.90
28524;DHT22;15734;50.904;6.922;2024-01-06T14:12:49;4.40;99.90
28524;DHT22;15734;50.904;6.922;2024-01-06T14:15:14;4.40;99.90
28524;DHT22;15734;50.904;6.922;2024-01-06T14:17:40;4.40;99.90
28524;DHT22;15734;50.904;6.922;2024-01-06T14:20:07;4.40;99.90
28524;DHT22;15734;50.904;6.922;2024-01-06T14:22:34;4.40;99.90
28524;DHT22;15734;50.904;6.922;2024-01-06T14:25:00;4.50;99.90
28524;DHT22;15734;50.904;6.922;2024-01-06T14:27:25;4.50;99.90
28524;DHT22;15734;50.904;6.922;2024-01-06T14:29:51;4.50;99.90
28524;DHT22;15734;50.904;6.922;2024-01-06T14:32:21;4.40;99.90
28524;DHT22;15734;50.904;6.922;2024-01-06T14:34:48;4.40;99.90
28524;DHT22;15734;50.904;6.922;2024-01-06T14:37:14;4.40;99.90
28524;DHT22;15734;50.904;6.922;2024-01-06T14:39:39;4.40;99.90
28524;DHT22;15734;50.904;6.922;2024-01-06T14:42:05;4.40;99.90
28524;DHT22;15734;50.904;6.922;2024-01-06T14:44:31;4.40;99.90
28524;DHT22;15734;50.904;6.922;2024-01-06T14:46:57;4.30;99.90
28524;DHT22;15734;50.904;6.922;2024-01-06T14:49:23;4.30;99.90
28524;DHT22;15734;50.904;6.922;2024-01-06T14:51:49;4.30;99.90
28524;DHT22;15734;50.904;6.922;2024-01-06T14:54:14;4.30;99.90
28524;DHT22;15734;50.904;6.922;2024-01-06T14:56:40;4.30;99.90
28524;DHT22;15734;50.904;6.922;2024-01-06T14:59:09;4.30;99.90
28524;DHT22;15734;50.904;6.922;2024-01-06T15:01:34;4.30;99.90
28524;DHT22;15734;50.904;6.922;2024-01-06T15:04:00;4.30;99.90
28524;DHT22;15734;50.904;6.922;2024-01-06T15:06:25;4.30;99.90
28524;DHT22;15734;50.904;6.922;2024-01-06T15:08:51;4.30;99.90
28524;DHT22;15734;50.904;6.922;2024-01-06T15:11:16;4.30;99.90
28524;DHT22;15734;50.904;6.922;2024-01-06T15:13:42;4.30;99.90
28524;DHT22;15734;50.904;6.922;2024-01-06T15:16:08;4.30;99.90
28524;DHT22;15734;50.904;6.922;2024-01-06T15:18:33;4.30;99.90
28524;DHT22;15734;50.904;6.922;2024-01-06T15:21:00;4.30;99.90
28524;DHT22;15734;50.904;6.922;2024-01-06T15:23:26;4.20;99.90
28524;DHT22;15734;50.904;6.922;2024-01-06T15:25:51;4.20;99.90
28524;DHT22;15734;50.904;6.922;2024-01-06T15:28:17;4.20;99.90
28524;DHT22;15734;50.904;6.922;2024-01-06T15:30:42;4.10;99.90
28524;DHT22;15734;50.904;6.922;2024-01-06T15:33:08;4.10;99.90
28524;DHT22;15734;50.904;6.922;2024-01-06T15:35:33;4.00;99.90
28524;DHT22;15734;50.904;6.922;2024-01-06T15:37:59;4.10;99.90
28524;DHT22;15734;50.904;6.922;2024-01-06T15:40:24;4.10;99.90
28524;DHT22;15734;50.904;6.922;2024-01-06T15:42:50;4.10;99.90